Time;durP1;ratioP1;P1;durP2;ratioP2;P2;SDS_P1;SDS_P2;PMS_P1;PMS_P2;Temp;Humidity;BMP_temperature;BMP_pressure;BME280_temperature;BME280_humidity;BME280_pressure;Samples;Min_cycle;Max_cycle;Signal;HPM_P1;HPM_P2
2023/09/12 00:02:05;;;;;;;12.48;7.65;;;23.50;99.90;;;;;;5018340;28;20212;-70
2023/09/12 00:04:31;;;;;;;10.48;7.40;;;23.50;99.90;;;;;;5014848;28;20212;-70
2023/09/12 00:06:57;;;;;;;12.07;7.72;;;23.50;99.90;;;;;;5015330;28;20205;-70
2023/09/12 00:09:22;;;;;;;16.23;7.63;;;23.50;99.90;;;;;;5015978;28;20246;-70
2023/09/12 00:11:48;;;;;;;12.20;7.00;;;23.50;99.90;;;;;;5017888;28;20354;-70
2023/09/12 00:14:18;;;;;;;11.32;7.03;;;23.50;99.90;;;;;;5013751;28;20209;-71
2023/09/12 00:16:43;;;;;;;8.77;6.85;;;23.50;99.90;;;;;;5014056;28;20228;-70
2023/09/12 00:19:09;;;;;;;13.07;6.72;;;23.50;99.90;;;;;;5011726;28;20592;-69
2023/09/12 00:21:35;;;;;;;7.80;6.22;;;23.40;99.90;;;;;;5016645;28;20581;-70
2023/09/12 00:24:00;;;;;;;9.88;6.47;;;23.50;99.90;;;;;;5011383;28;20213;-70
2023/09/12 00:26:27;;;;;;;10.65;6.93;;;23.40;99.90;;;;;;5012447;28;20220;-70
2023/09/12 00:28:52;;;;;;;9.48;7.15;;;23.40;99.90;;;;;;5012565;28;20628;-70
2023/09/12 00:31:18;;;;;;;9.63;6.50;;;23.40;99.90;;;;;;5011822;28;20213;-71
2023/09/12 00:33:44;;;;;;;9.18;6.38;;;23.30;99.90;;;;;;5011726;28;20181;-70
2023/09/12 00:36:09;;;;;;;8.63;6.00;;;23.30;99.90;;;;;;5013749;28;20711;-68
2023/09/12 00:38:35;;;;;;;10.23;6.03;;;23.20;99.90;;;;;;5015650;28;20201;-70
2023/09/12 00:41:00;;;;;;;11.10;6.60;;;23.20;99.90;;;;;;5018056;28;20660;-70
2023/09/12 00:43:26;;;;;;;9.80;6.05;;;23.20;99.90;;;;;;5016339;28;20221;-70
2023/09/12 00:45:52;;;;;;;8.40;5.97;;;23.20;99.90;;;;;;5014951;28;20251;-71
2023/09/12 00:48:20;;;;;;;12.57;6.45;;;23.20;99.90;;;;;;5014899;28;20197;-71
2023/09/12 00:50:48;;;;;;;11.43;6.25;;;23.20;99.90;;;;;;5013150;28;20197;-70
2023/09/12 00:53:14;;;;;;;10.68;6.97;;;23.20;99.90;;;;;;5011930;28;20263;-70
2023/09/12 00:55:45;;;;;;;10.35;7.15;;;23.10;99.90;;;;;;5012510;28;20220;-70
2023/09/12 00:58:11;;;;;;;10.63;6.60;;;23.10;99.90;;;;;;5010715;28;20217;-68
2023/09/12 01:00:36;;;;;;;8.13;6.38;;;23.10;99.90;;;;;;5012524;28;20256;-70
2023/09/12 01:03:03;;;;;;;9.43;7.47;;;23.10;99.90;;;;;;5013266;28;20298;-70
2023/09/12 01:05:29;;;;;;;10.43;6.47;;;23.00;99.90;;;;;;5010603;28;20779;-71
2023/09/12 01:07:55;;;;;;;12.05;7.30;;;23.00;99.90;;;;;;5011898;28;20295;-70
2023/09/12 01:10:21;;;;;;;10.93;6.95;;;23.00;99.90;;;;;;5011469;28;20204;-72
2023/09/12 01:12:46;;;;;;;10.32;7.07;;;22.90;99.90;;;;;;5011417;28;20191;-70
2023/09/12 01:15:15;;;;;;;10.88;7.43;;;23.00;99.90;;;;;;5018574;28;20205;-70
2023/09/12 01:17:43;;;;;;;8.05;6.20;;;23.00;99.90;;;;;;5012772;28;20212;-70
2023/09/12 01:20:14;;;;;;;6.78;5.78;;;23.00;99.90;;;;;;5016915;28;20212;-71
2023/09/12 01:23:31;;;;;;;10.63;7.68;;;23.00;99.90;;;;;;5007704;28;20867;-69
2023/09/12 01:25:57;;;;;;;10.38;6.35;;;23.00;99.90;;;;;;5012894;28;20603;-70
2023/09/12 01:28:27;;;;;;;9.63;6.15;;;22.90;99.90;;;;;;5016477;28;20299;-70
2023/09/12 01:30:54;;;;;;;12.15;7.55;;;22.90;99.90;;;;;;5012768;28;20252;-70
2023/09/12 01:33:20;;;;;;;9.38;7.03;;;22.80;99.90;;;;;;5011474;28;20188;-70
2023/09/12 01:35:46;;;;;;;8.90;6.82;;;22.80;99.90;;;;;;5012414;28;20213;-70
2023/09/12 01:38:13;;;;;;;9.05;6.68;;;22.80;99.90;;;;;;5012725;28;20263;-70
2023/09/12 01:40:49;;;;;;;13.00;7.38;;;22.80;99.90;;;;;;5011929;28;20200;-70
2023/09/12 01:43:17;;;;;;;10.05;6.63;;;22.80;99.90;;;;;;5011839;28;20227;-71
2023/09/12 01:45:48;;;;;;;12.80;7.13;;;22.80;99.90;;;;;;5011592;28;20263;-70
2023/09/12 01:48:22;;;;;;;8.43;6.53;;;22.80;99.90;;;;;;5007039;28;20292;-70
2023/09/12 01:50:48;;;;;;;8.82;6.45;;;22.80;99.90;;;;;;5006741;28;20240;-71
2023/09/12 01:53:14;;;;;;;12.00;6.78;;;22.80;99.90;;;;;;5010287;28;20217;-70
2023/09/12 01:55:44;;;;;;;11.55;6.85;;;22.70;99.90;;;;;;5012246;28;20653;-70
2023/09/12 01:58:11;;;;;;;11.20;6.55;;;22.70;99.90;;;;;;5010026;28;20347;-71
2023/09/12 02:00:38;;;;;;;12.68;6.60;;;22.60;99.90;;;;;;5015817;28;20188;-71
2023/09/12 02:03:04;;;;;;;8.48;6.07;;;22.60;99.90;;;;;;5006251;28;20263;-70
2023/09/12 02:05:30;;;;;;;8.10;6.85;;;22.60;99.90;;;;;;5008585;28;20622;-71
2023/09/12 02:07:55;;;;;;;10.95;5.93;;;22.60;99.90;;;;;;5010089;28;20591;-71
2023/09/12 02:10:21;;;;;;;8.70;6.78;;;22.60;99.90;;;;;;5015359;28;20295;-70
2023/09/12 02:12:47;;;;;;;9.48;6.72;;;22.60;99.90;;;;;;5017305;28;20720;-70
2023/09/12 02:15:13;;;;;;;11.02;5.95;;;22.50;99.90;;;;;;5017076;28;20192;-70
2023/09/12 02:17:38;;;;;;;9.13;6.35;;;22.50;99.90;;;;;;5019645;28;20700;-71
2023/09/12 02:20:06;;;;;;;8.20;6.32;;;22.50;99.90;;;;;;5021232;28;20217;-70
2023/09/12 02:22:32;;;;;;;12.80;6.70;;;22.50;99.90;;;;;;5019848;28;20212;-71
2023/09/12 02:24:58;;;;;;;7.55;6.68;;;22.40;99.90;;;;;;5014381;28;20220;-70
2023/09/12 02:27:23;;;;;;;10.05;6.20;;;22.50;99.90;;;;;;5014038;28;20258;-70
2023/09/12 02:29:49;;;;;;;15.70;7.00;;;22.40;99.90;;;;;;5003718;28;20235;-71
2023/09/12 02:32:14;;;;;;;9.38;6.43;;;22.40;99.90;;;;;;5013837;28;20213;-71
2023/09/12 02:34:40;;;;;;;8.70;6.47;;;22.50;99.90;;;;;;5015209;28;20444;-70
2023/09/12 02:37:06;;;;;;;8.55;6.30;;;22.40;99.90;;;;;;5016451;28;20316;-70
2023/09/12 02:39:31;;;;;;;9.10;6.45;;;22.40;99.90;;;;;;5013387;28;20185;-70
2023/09/12 02:41:57;;;;;;;12.73;6.75;;;22.20;99.90;;;;;;5012093;28;20204;-71
2023/09/12 02:44:22;;;;;;;10.70;6.15;;;22.20;99.90;;;;;;5012733;28;20221;-70
2023/09/12 02:46:48;;;;;;;7.80;6.60;;;22.30;99.90;;;;;;5015994;28;20262;-70
2023/09/12 02:49:14;;;;;;;8.25;6.28;;;22.30;99.90;;;;;;5013266;28;20223;-70
2023/09/12 02:51:41;;;;;;;12.57;6.80;;;22.30;99.90;;;;;;5013396;28;20550;-69
2023/09/12 02:54:06;;;;;;;10.88;6.60;;;22.30;99.90;;;;;;5011439;28;20572;-69
2023/09/12 02:56:32;;;;;;;10.35;7.78;;;22.30;99.90;;;;;;5013042;28;20303;-69
2023/09/12 02:58:58;;;;;;;7.97;6.72;;;22.30;99.90;;;;;;5013005;28;20574;-70
2023/09/12 03:01:27;;;;;;;7.88;5.78;;;22.30;99.90;;;;;;5013516;28;20215;-69
2023/09/12 03:03:53;;;;;;;9.00;6.50;;;22.20;99.90;;;;;;5009363;28;20264;-70
2023/09/12 03:06:19;;;;;;;8.68;6.05;;;22.20;99.90;;;;;;5013334;28;20194;-70
2023/09/12 03:08:45;;;;;;;13.05;7.35;;;22.20;99.90;;;;;;5016444;28;20312;-70
2023/09/12 03:11:10;;;;;;;10.52;6.85;;;22.30;99.90;;;;;;5011679;28;20340;-70
2023/09/12 03:13:40;;;;;;;13.02;6.90;;;22.20;99.90;;;;;;5013290;28;20213;-71
2023/09/12 03:16:10;;;;;;;11.23;6.68;;;22.20;99.90;;;;;;5012865;28;20216;-71
2023/09/12 03:18:36;;;;;;;10.13;6.38;;;22.10;99.90;;;;;;5014128;28;20227;-70
2023/09/12 03:21:01;;;;;;;8.13;6.43;;;22.10;99.90;;;;;;5011307;28;20605;-70
2023/09/12 03:23:27;;;;;;;10.52;7.03;;;22.10;99.90;;;;;;5012372;28;20243;-71
2023/09/12 03:25:52;;;;;;;9.63;6.55;;;22.10;99.90;;;;;;5012884;28;20267;-70
2023/09/12 03:28:18;;;;;;;8.98;6.72;;;22.10;99.90;;;;;;5024507;23;20228;-68
2023/09/12 03:30:44;;;;;;;10.10;7.22;;;22.10;99.90;;;;;;5003877;28;20603;-69
2023/09/12 03:33:09;;;;;;;8.32;6.90;;;22.10;99.90;;;;;;5009896;28;20221;-71
2023/09/12 03:35:36;;;;;;;10.68;6.85;;;22.10;99.90;;;;;;5006924;28;20208;-71
2023/09/12 03:38:02;;;;;;;10.45;7.10;;;22.10;99.90;;;;;;5021676;28;20283;-68
2023/09/12 03:40:31;;;;;;;10.30;6.95;;;22.00;99.90;;;;;;4999997;28;20233;-69
2023/09/12 03:42:57;;;;;;;10.25;6.95;;;22.00;99.90;;;;;;4996811;28;20186;-69
2023/09/12 03:45:23;;;;;;;9.07;6.65;;;22.00;99.90;;;;;;4998474;28;20236;-69
2023/09/12 03:47:49;;;;;;;11.80;6.93;;;22.00;99.90;;;;;;4991111;28;20214;-69
2023/09/12 03:50:15;;;;;;;7.40;6.20;;;22.00;99.90;;;;;;4998931;28;20292;-68
2023/09/12 03:52:40;;;;;;;8.90;6.63;;;22.00;99.90;;;;;;4995140;28;20309;-69
2023/09/12 03:55:06;;;;;;;8.82;6.32;;;22.00;99.90;;;;;;5001384;28;20235;-70
2023/09/12 03:57:32;;;;;;;8.90;6.95;;;22.00;99.90;;;;;;4997151;28;20703;-70
2023/09/12 03:59:57;;;;;;;8.75;6.25;;;22.00;99.90;;;;;;4996444;28;20236;-69
2023/09/12 04:02:23;;;;;;;9.60;7.13;;;22.00;99.90;;;;;;4990979;28;20209;-69
2023/09/12 04:04:49;;;;;;;13.10;6.15;;;21.90;99.90;;;;;;4998718;28;20222;-69
2023/09/12 04:07:15;;;;;;;7.50;6.32;;;21.90;99.90;;;;;;5001049;28;20236;-69
2023/09/12 04:09:41;;;;;;;9.13;6.82;;;22.00;99.90;;;;;;4997974;28;20245;-69
2023/09/12 04:12:08;;;;;;;11.93;7.03;;;21.90;99.90;;;;;;4999633;28;20287;-68
2023/09/12 04:14:34;;;;;;;9.32;6.60;;;21.90;99.90;;;;;;5000383;28;20213;-69
2023/09/12 04:17:00;;;;;;;7.85;6.40;;;21.90;99.90;;;;;;4999317;28;20210;-68
2023/09/12 04:19:26;;;;;;;12.52;6.90;;;21.80;99.90;;;;;;5003099;28;20283;-69
2023/09/12 04:21:51;;;;;;;8.68;7.03;;;21.80;99.90;;;;;;4994765;28;20533;-70
2023/09/12 04:24:17;;;;;;;9.90;7.25;;;21.80;99.90;;;;;;4998264;28;20212;-69
2023/09/12 04:26:43;;;;;;;10.90;6.45;;;21.70;99.90;;;;;;4993763;28;20209;-69
2023/09/12 04:29:10;;;;;;;10.95;7.10;;;21.70;99.90;;;;;;5011481;28;20222;-69
2023/09/12 04:31:35;;;;;;;10.30;7.10;;;21.70;99.90;;;;;;4998447;28;20201;-69
2023/09/12 04:34:01;;;;;;;8.32;6.13;;;21.70;99.90;;;;;;4995048;28;20189;-68
2023/09/12 04:36:26;;;;;;;12.35;6.60;;;21.70;99.90;;;;;;4991907;28;20244;-67
2023/09/12 04:38:52;;;;;;;9.73;7.40;;;21.60;99.90;;;;;;4994378;28;20210;-69
2023/09/12 04:41:18;;;;;;;12.50;7.13;;;21.80;99.90;;;;;;5001818;28;20216;-69
2023/09/12 04:43:44;;;;;;;11.98;7.05;;;21.80;99.90;;;;;;4999366;28;20217;-69
2023/09/12 04:46:11;;;;;;;10.43;6.40;;;21.80;99.90;;;;;;5001054;28;20650;-69
2023/09/12 04:48:37;;;;;;;11.18;6.80;;;21.70;99.90;;;;;;4999540;28;20581;-70
2023/09/12 04:51:02;;;;;;;12.07;6.88;;;21.90;99.90;;;;;;5000663;28;20213;-69
2023/09/12 04:53:34;;;;;;;10.18;6.47;;;22.00;99.90;;;;;;4998589;28;20220;-68
2023/09/12 04:56:04;;;;;;;10.50;7.28;;;22.10;99.90;;;;;;4988090;28;20685;-69
2023/09/12 04:58:29;;;;;;;8.25;5.82;;;22.20;99.90;;;;;;4995855;28;20690;-70
2023/09/12 05:00:56;;;;;;;9.90;7.40;;;22.30;99.90;;;;;;4992155;28;20257;-70
2023/09/12 05:03:22;;;;;;;10.25;6.95;;;22.50;99.90;;;;;;5003142;28;20216;-69
2023/09/12 05:05:49;;;;;;;9.85;6.65;;;22.60;99.90;;;;;;4990828;28;20218;-69
2023/09/12 05:08:15;;;;;;;9.77;7.10;;;22.50;99.90;;;;;;5014241;28;20296;-69
2023/09/12 05:10:43;;;;;;;8.52;6.70;;;22.40;99.90;;;;;;4997280;28;20201;-69
2023/09/12 05:13:09;;;;;;;8.45;6.63;;;22.70;99.90;;;;;;4999653;28;20210;-69
2023/09/12 05:15:34;;;;;;;9.80;7.07;;;22.80;99.90;;;;;;4996921;28;20173;-69
2023/09/12 05:18:00;;;;;;;12.13;7.22;;;23.10;99.90;;;;;;4992043;28;20207;-69
2023/09/12 05:20:25;;;;;;;14.35;7.97;;;23.10;99.90;;;;;;4999369;28;20618;-69
2023/09/12 05:22:51;;;;;;;9.32;6.68;;;23.20;99.90;;;;;;4997020;28;20202;-69
2023/09/12 05:25:17;;;;;;;9.48;6.15;;;23.50;99.90;;;;;;5000214;28;20632;-69
2023/09/12 05:27:42;;;;;;;8.18;6.53;;;23.60;99.90;;;;;;4999620;28;20260;-70
2023/09/12 05:30:08;;;;;;;9.90;6.13;;;23.90;99.90;;;;;;5001462;28;20205;-70
2023/09/12 05:32:34;;;;;;;7.68;6.55;;;24.60;99.90;;;;;;4992808;28;20295;-69
2023/09/12 05:34:59;;;;;;;11.00;6.50;;;26.20;99.90;;;;;;5004198;28;20201;-70
2023/09/12 05:37:25;;;;;;;11.15;6.47;;;26.90;99.90;;;;;;4994324;28;20216;-70
2023/09/12 05:39:50;;;;;;;11.27;6.80;;;27.10;99.90;;;;;;4995706;28;20204;-70
2023/09/12 05:42:20;;;;;;;8.25;6.30;;;27.70;99.90;;;;;;4994986;28;20256;-69
2023/09/12 05:44:47;;;;;;;11.50;6.93;;;28.10;99.90;;;;;;5002776;28;20212;-70
2023/09/12 05:47:13;;;;;;;9.13;7.22;;;28.20;99.90;;;;;;5015866;28;20830;-69
2023/09/12 05:49:38;;;;;;;10.85;7.43;;;28.10;99.90;;;;;;5003610;28;20292;-68
2023/09/12 05:52:04;;;;;;;14.82;7.65;;;28.30;99.90;;;;;;5001581;28;20170;-70
2023/09/12 05:54:30;;;;;;;14.35;8.52;;;28.40;99.90;;;;;;5001678;28;20196;-70
2023/09/12 05:56:55;;;;;;;12.70;7.15;;;29.00;99.90;;;;;;5001045;28;20223;-70
2023/09/12 05:59:21;;;;;;;12.65;7.55;;;28.80;99.90;;;;;;5004819;28;20217;-70
2023/09/12 06:01:48;;;;;;;11.23;6.97;;;29.90;99.90;;;;;;5002914;28;20295;-69
2023/09/12 06:04:14;;;;;;;9.40;6.65;;;31.00;99.90;;;;;;5004738;28;20224;-70
2023/09/12 06:06:40;;;;;;;11.15;7.05;;;31.70;99.90;;;;;;5002603;28;20181;-69
2023/09/12 06:09:05;;;;;;;12.70;7.50;;;32.20;99.90;;;;;;4994803;28;20692;-71
2023/09/12 06:11:31;;;;;;;8.23;6.78;;;32.80;99.90;;;;;;5005296;28;20307;-71
2023/09/12 06:13:57;;;;;;;9.43;7.25;;;33.30;99.90;;;;;;4995626;28;20201;-71
2023/09/12 06:16:22;;;;;;;8.82;7.03;;;33.50;99.60;;;;;;5001706;28;20654;-71
2023/09/12 06:18:48;;;;;;;10.02;6.85;;;33.80;98.40;;;;;;4997509;28;20295;-70
2023/09/12 06:21:14;;;;;;;7.57;6.78;;;33.70;96.90;;;;;;4999825;28;20656;-71
2023/09/12 06:23:40;;;;;;;8.75;6.60;;;33.50;96.70;;;;;;5000626;28;20221;-71
2023/09/12 06:26:05;;;;;;;12.27;7.03;;;33.80;96.00;;;;;;4997499;28;20733;-71
2023/09/12 06:28:31;;;;;;;8.13;5.82;;;34.00;95.20;;;;;;5004135;28;20220;-71
2023/09/12 06:30:58;;;;;;;7.82;6.53;;;34.30;94.50;;;;;;5000505;28;20186;-70
2023/09/12 06:33:25;;;;;;;10.73;6.03;;;34.30;94.00;;;;;;5004067;28;20184;-71
2023/09/12 06:35:52;;;;;;;8.48;5.78;;;34.30;93.50;;;;;;4999172;28;20292;-71
2023/09/12 06:38:19;;;;;;;11.30;6.25;;;34.50;93.50;;;;;;5004250;28;20213;-72
2023/09/12 06:40:47;;;;;;;7.35;6.13;;;34.80;92.60;;;;;;5000727;28;20216;-71
2023/09/12 06:43:13;;;;;;;8.45;5.97;;;35.20;91.60;;;;;;5001093;28;20212;-71
2023/09/12 06:45:40;;;;;;;6.78;5.60;;;35.40;90.70;;;;;;4997692;28;20184;-71
2023/09/12 06:48:06;;;;;;;7.90;6.57;;;35.90;89.80;;;;;;5000443;28;20201;-70
2023/09/12 06:50:31;;;;;;;10.93;6.15;;;35.70;89.20;;;;;;4997080;28;20645;-71
2023/09/12 06:52:57;;;;;;;6.85;5.63;;;36.10;88.30;;;;;;4993157;28;20636;-71
2023/09/12 06:55:23;;;;;;;15.27;6.72;;;36.00;87.70;;;;;;4999698;28;20206;-71
2023/09/12 06:57:49;;;;;;;8.18;6.15;;;36.40;86.90;;;;;;4997434;28;20695;-71
2023/09/12 07:00:14;;;;;;;8.73;5.70;;;36.60;85.80;;;;;;5000974;28;20174;-71
2023/09/12 07:02:40;;;;;;;7.38;5.45;;;36.20;85.40;;;;;;5003678;28;20201;-71
2023/09/12 07:05:06;;;;;;;7.38;5.30;;;36.30;84.80;;;;;;5000053;28;20222;-71
2023/09/12 07:07:33;;;;;;;8.32;5.80;;;37.00;83.90;;;;;;5000401;28;20773;-71
2023/09/12 07:09:59;;;;;;;10.23;6.78;;;37.30;82.70;;;;;;4997396;28;20189;-71
2023/09/12 07:12:28;;;;;;;6.93;4.70;;;37.20;82.20;;;;;;5004061;28;20176;-71
2023/09/12 07:14:55;;;;;;;8.52;6.72;;;38.00;80.60;;;;;;4997248;28;20220;-71
2023/09/12 07:17:21;;;;;;;12.98;5.40;;;37.70;78.90;;;;;;5002495;28;20216;-71
2023/09/12 07:19:47;;;;;;;11.02;5.60;;;37.40;80.10;;;;;;4999972;28;20208;-71
2023/09/12 07:22:12;;;;;;;7.90;5.13;;;37.60;79.20;;;;;;4993741;28;20337;-71
2023/09/12 07:24:38;;;;;;;11.52;5.88;;;37.80;78.70;;;;;;5000364;28;20250;-72
2023/09/12 07:27:04;;;;;;;11.20;5.75;;;37.60;78.70;;;;;;4995718;28;20227;-71
2023/09/12 07:29:30;;;;;;;11.90;5.35;;;37.50;78.60;;;;;;4995776;28;20197;-71
2023/09/12 07:31:55;;;;;;;10.88;6.72;;;37.60;78.50;;;;;;4999585;28;20287;-71
2023/09/12 07:34:21;;;;;;;9.45;6.45;;;37.60;78.50;;;;;;4995559;28;20240;-71
2023/09/12 07:36:47;;;;;;;8.40;6.82;;;37.60;78.60;;;;;;4999515;28;21970;-72
2023/09/12 07:39:12;;;;;;;6.18;5.35;;;37.60;78.40;;;;;;4997961;28;20181;-71
2023/09/12 07:41:38;;;;;;;9.57;5.78;;;37.80;77.70;;;;;;5001797;28;20211;-70
2023/09/12 07:44:04;;;;;;;10.63;5.88;;;37.90;77.40;;;;;;4999145;28;20224;-71
2023/09/12 07:46:30;;;;;;;9.35;5.55;;;38.30;77.00;;;;;;5002247;28;20257;-71
2023/09/12 07:48:56;;;;;;;9.05;5.63;;;38.50;77.40;;;;;;4997787;28;20686;-71
2023/09/12 07:51:23;;;;;;;10.43;5.03;;;38.70;76.60;;;;;;4998555;28;20204;-71
2023/09/12 07:53:49;;;;;;;9.40;6.07;;;38.80;76.40;;;;;;5000515;28;20233;-71
2023/09/12 07:56:14;;;;;;;11.38;5.72;;;38.20;77.70;;;;;;5002945;28;20248;-71
2023/09/12 07:58:40;;;;;;;8.63;6.13;;;38.70;76.90;;;;;;4999512;28;20213;-71
2023/09/12 08:01:07;;;;;;;10.07;5.22;;;38.60;77.20;;;;;;4993726;28;20666;-72
2023/09/12 08:03:34;;;;;;;10.73;5.40;;;38.80;77.20;;;;;;4997992;28;20212;-71
2023/09/12 08:05:59;;;;;;;8.02;5.82;;;38.90;76.70;;;;;;4995492;28;20584;-71
2023/09/12 08:08:25;;;;;;;16.30;5.43;;;38.90;77.20;;;;;;4999966;28;20212;-71
2023/09/12 08:10:50;;;;;;;10.70;5.47;;;38.80;77.20;;;;;;4995153;28;20239;-71
2023/09/12 08:13:16;;;;;;;12.05;5.43;;;39.00;77.60;;;;;;4998704;28;20283;-71
2023/09/12 08:15:42;;;;;;;13.60;5.45;;;39.10;76.60;;;;;;5000784;28;20176;-71
2023/09/12 08:18:07;;;;;;;8.23;5.60;;;38.60;77.10;;;;;;4995837;28;20228;-71
2023/09/12 08:20:33;;;;;;;14.55;5.55;;;38.50;76.70;;;;;;4998179;28;20295;-71
2023/09/12 08:22:58;;;;;;;6.15;5.00;;;38.60;76.50;;;;;;4993072;28;20236;-72
2023/09/12 08:25:24;;;;;;;12.05;5.03;;;38.30;76.70;;;;;;5001627;28;20271;-70
2023/09/12 08:27:50;;;;;;;10.98;5.03;;;38.70;76.10;;;;;;5000628;28;20587;-71
2023/09/12 08:30:16;;;;;;;12.98;5.15;;;38.60;76.20;;;;;;5000709;28;20261;-69
2023/09/12 08:32:45;;;;;;;10.35;5.57;;;37.90;77.20;;;;;;4999422;28;20228;-70
2023/09/12 08:35:12;;;;;;;12.73;4.72;;;38.20;77.10;;;;;;4997845;28;20216;-68
2023/09/12 08:37:40;;;;;;;9.27;6.60;;;38.20;76.50;;;;;;4991928;28;20292;-69
2023/09/12 08:40:08;;;;;;;13.82;6.05;;;38.30;77.30;;;;;;4997548;28;20176;-71
2023/09/12 08:42:41;;;;;;;24.83;5.78;;;38.40;77.10;;;;;;4994497;28;20178;-70
2023/09/12 08:45:17;;;;;;;14.05;6.30;;;38.40;77.00;;;;;;4993665;28;20209;-69
2023/09/12 08:47:53;;;;;;;8.73;5.45;;;38.30;77.10;;;;;;4991594;28;20286;-69
2023/09/12 08:50:23;;;;;;;11.18;5.25;;;38.30;77.80;;;;;;4997263;28;20204;-70
2023/09/12 08:52:49;;;;;;;12.25;5.43;;;38.00;78.40;;;;;;5001847;28;20752;-69
2023/09/12 08:55:14;;;;;;;10.18;5.20;;;38.10;78.50;;;;;;4997702;28;20245;-70
2023/09/12 08:57:42;;;;;;;7.93;5.20;;;37.80;78.60;;;;;;4999088;28;20206;-69
2023/09/12 09:00:10;;;;;;;19.63;5.55;;;37.90;78.70;;;;;;4995833;28;20703;-69
2023/09/12 09:02:36;;;;;;;10.82;4.80;;;37.70;79.10;;;;;;5000443;28;20204;-69
2023/09/12 09:05:06;;;;;;;12.70;4.95;;;37.30;80.10;;;;;;4997915;28;20221;-70
2023/09/12 09:07:34;;;;;;;13.30;4.78;;;37.10;81.10;;;;;;5000954;28;20215;-69
2023/09/12 09:10:05;;;;;;;10.15;5.25;;;36.70;81.60;;;;;;4998355;28;20181;-69
2023/09/12 09:12:30;;;;;;;9.70;5.03;;;36.60;82.20;;;;;;5002585;28;20234;-69
2023/09/12 09:14:56;;;;;;;16.30;6.63;;;36.50;82.90;;;;;;4993664;28;20224;-69
2023/09/12 09:17:22;;;;;;;10.02;4.93;;;36.40;83.00;;;;;;4988364;28;20307;-71
2023/09/12 09:19:48;;;;;;;13.50;5.40;;;36.00;83.90;;;;;;4991122;28;20213;-69
2023/09/12 09:22:14;;;;;;;17.33;5.95;;;35.50;84.50;;;;;;4996596;28;20213;-71
2023/09/12 09:24:39;;;;;;;15.32;6.30;;;35.30;86.10;;;;;;4996801;28;20683;-69
2023/09/12 09:27:05;;;;;;;13.75;6.40;;;35.10;86.50;;;;;;4997081;28;20297;-68
2023/09/12 09:29:33;;;;;;;15.98;6.80;;;35.00;88.50;;;;;;4998946;28;20238;-68
2023/09/12 09:32:05;;;;;;;10.60;5.80;;;34.70;89.70;;;;;;4998037;28;20233;-66
2023/09/12 09:34:31;;;;;;;10.50;5.85;;;34.70;90.20;;;;;;4997402;28;20694;-70
2023/09/12 09:36:58;;;;;;;18.23;6.45;;;34.40;90.30;;;;;;4993131;28;20193;-69
2023/09/12 09:39:30;;;;;;;10.98;6.43;;;34.10;90.90;;;;;;5018308;22;20228;-72
2023/09/12 09:41:57;;;;;;;20.70;6.53;;;34.00;91.20;;;;;;5009907;28;20213;-72
2023/09/12 09:44:26;;;;;;;16.20;6.43;;;33.50;91.50;;;;;;5010006;28;20215;-72
2023/09/12 09:47:00;;;;;;;9.63;6.05;;;33.60;91.90;;;;;;5010476;28;20274;-72
2023/09/12 09:49:25;;;;;;;13.07;5.97;;;33.70;92.00;;;;;;4999690;28;20213;-72
2023/09/12 09:51:55;;;;;;;16.55;7.30;;;33.90;92.20;;;;;;5000498;28;20255;-71
2023/09/12 09:54:24;;;;;;;10.15;6.40;;;33.80;92.50;;;;;;4995697;28;20205;-71
2023/09/12 09:56:54;;;;;;;12.90;6.60;;;33.70;92.60;;;;;;5001451;28;20609;-71
2023/09/12 09:59:24;;;;;;;16.10;6.45;;;33.40;92.40;;;;;;4997268;28;20305;-71
2023/09/12 10:01:55;;;;;;;18.42;8.02;;;33.50;92.50;;;;;;4994701;28;20216;-72
2023/09/12 10:04:22;;;;;;;10.57;7.78;;;33.80;92.30;;;;;;4997772;28;20224;-71
2023/09/12 10:06:49;;;;;;;17.63;7.90;;;34.00;92.50;;;;;;5001358;28;20173;-71
2023/09/12 10:09:16;;;;;;;13.45;6.90;;;33.80;92.50;;;;;;4998796;28;20198;-72
2023/09/12 10:11:43;;;;;;;9.00;6.90;;;33.70;92.70;;;;;;4996801;28;20220;-72
2023/09/12 10:14:11;;;;;;;20.30;7.97;;;33.80;93.20;;;;;;4992092;28;20259;-72
2023/09/12 10:16:45;;;;;;;10.55;7.13;;;33.70;93.10;;;;;;4996922;28;20247;-72
2023/09/12 10:19:18;;;;;;;17.73;6.57;;;33.90;93.00;;;;;;4996381;28;20792;-72
2023/09/12 10:22:09;;;;;;;13.65;6.30;;;34.00;93.10;;;;;;5001503;28;20611;-71
2023/09/12 10:24:36;;;;;;;11.60;6.38;;;33.80;93.20;;;;;;4998536;28;20205;-72
2023/09/12 10:27:05;;;;;;;12.43;6.13;;;33.70;93.70;;;;;;4998724;28;20354;-72
2023/09/12 10:29:31;;;;;;;15.98;8.20;;;33.80;93.70;;;;;;4994828;28;20205;-72
2023/09/12 10:31:57;;;;;;;20.90;11.15;;;33.70;93.20;;;;;;5005345;28;20636;-72
2023/09/12 10:34:25;;;;;;;23.90;8.98;;;33.80;93.30;;;;;;4997258;28;20225;-72
2023/09/12 10:36:52;;;;;;;14.48;6.60;;;33.90;93.30;;;;;;5004193;28;20682;-73
2023/09/12 10:39:20;;;;;;;17.25;6.70;;;34.00;93.80;;;;;;5001754;28;20213;-72
2023/09/12 10:41:46;;;;;;;13.40;7.15;;;34.10;93.40;;;;;;5005082;28;20201;-72
2023/09/12 10:44:17;;;;;;;14.65;7.57;;;33.90;93.00;;;;;;5002211;28;20221;-70
2023/09/12 10:46:44;;;;;;;34.47;16.05;;;33.50;93.20;;;;;;5005163;28;20201;-73
2023/09/12 10:49:14;;;;;;;23.08;11.00;;;33.50;93.60;;;;;;5000425;28;20300;-72
2023/09/12 10:51:47;;;;;;;12.75;7.63;;;33.70;93.60;;;;;;5005418;28;20185;-73
2023/09/12 10:54:15;;;;;;;14.30;8.75;;;33.30;93.70;;;;;;4999329;28;20218;-72
2023/09/12 10:56:41;;;;;;;17.98;7.53;;;33.50;94.10;;;;;;5005247;28;20255;-73
2023/09/12 10:59:06;;;;;;;14.43;6.53;;;33.60;94.20;;;;;;4981668;28;20613;-73
2023/09/12 11:01:36;;;;;;;12.48;6.93;;;33.40;94.20;;;;;;5001144;28;20285;-73
2023/09/12 11:04:25;;;;;;;13.05;7.30;;;33.60;94.50;;;;;;5001111;28;20713;-73
2023/09/12 11:06:50;;;;;;;13.73;7.05;;;33.70;94.20;;;;;;4988843;28;20255;-73
2023/09/12 11:09:18;;;;;;;12.10;5.97;;;33.80;94.30;;;;;;5001589;28;20193;-73
2023/09/12 11:11:48;;;;;;;13.30;5.88;;;33.60;94.40;;;;;;5003100;28;20206;-73
2023/09/12 11:14:18;;;;;;;11.25;5.70;;;33.60;94.20;;;;;;5002600;28;20599;-72
2023/09/12 11:17:07;;;;;;;10.25;5.55;;;33.50;94.20;;;;;;5003591;28;20766;-72
2023/09/12 11:19:52;;;;;;;7.97;5.60;;;33.00;94.30;;;;;;5001653;28;20255;-72
2023/09/12 11:22:30;;;;;;;13.73;6.70;;;32.90;94.50;;;;;;5001479;28;20587;-73
2023/09/12 11:24:57;;;;;;;11.73;5.97;;;32.90;94.80;;;;;;5000279;28;20201;-73
2023/09/12 11:27:25;;;;;;;8.60;5.05;;;32.90;94.90;;;;;;5002072;28;20197;-73
2023/09/12 11:29:50;;;;;;;13.60;5.13;;;33.00;95.00;;;;;;5003711;28;20209;-70
2023/09/12 11:32:34;;;;;;;8.27;4.93;;;33.00;94.90;;;;;;5000810;28;20206;-73
2023/09/12 11:35:08;;;;;;;7.97;5.95;;;33.00;94.90;;;;;;5001837;28;20205;-72
2023/09/12 11:37:37;;;;;;;7.03;5.07;;;33.00;94.80;;;;;;5003556;28;20239;-73
2023/09/12 11:40:12;;;;;;;7.78;4.80;;;32.70;94.90;;;;;;5000759;28;20599;-72
2023/09/12 11:42:46;;;;;;;8.27;4.55;;;32.50;95.00;;;;;;4997149;28;20165;-73
2023/09/12 11:45:12;;;;;;;14.60;5.25;;;32.20;95.30;;;;;;4998004;28;20298;-70
2023/09/12 11:47:40;;;;;;;10.73;4.57;;;32.30;95.70;;;;;;4999854;28;20301;-72
2023/09/12 11:50:07;;;;;;;6.38;4.80;;;32.20;95.80;;;;;;4999524;28;20749;-73
2023/09/12 11:52:37;;;;;;;8.30;4.65;;;32.10;96.00;;;;;;5001099;28;20205;-73
2023/09/12 11:55:03;;;;;;;7.22;4.82;;;32.10;96.20;;;;;;5002203;28;20601;-73
2023/09/12 11:57:29;;;;;;;6.95;4.63;;;32.00;96.50;;;;;;4999902;28;20177;-73
2023/09/12 11:59:56;;;;;;;5.68;4.55;;;31.90;96.30;;;;;;5003747;28;20384;-73
2023/09/12 12:02:22;;;;;;;6.20;4.80;;;32.20;96.50;;;;;;4998194;28;20236;-72
2023/09/12 12:04:48;;;;;;;6.53;4.97;;;32.40;96.20;;;;;;5000660;28;20833;-71
2023/09/12 12:07:14;;;;;;;5.40;4.20;;;32.50;96.10;;;;;;4999278;28;20300;-70
2023/09/12 12:09:39;;;;;;;6.35;4.68;;;32.60;96.10;;;;;;4997672;28;20231;-72
2023/09/12 12:12:13;;;;;;;6.25;3.75;;;32.60;96.00;;;;;;5000008;28;20213;-73
2023/09/12 12:14:41;;;;;;;8.85;4.50;;;32.50;95.80;;;;;;5006297;28;20580;-72
2023/09/12 12:17:11;;;;;;;6.30;4.13;;;32.40;96.00;;;;;;4998789;28;20213;-73
2023/09/12 12:19:38;;;;;;;7.95;5.07;;;32.50;96.10;;;;;;4998375;28;20288;-73
2023/09/12 12:22:07;;;;;;;7.85;4.55;;;32.40;95.90;;;;;;5003227;28;20185;-73
2023/09/12 12:24:38;;;;;;;5.80;4.03;;;32.20;96.20;;;;;;5000552;28;20205;-73
2023/09/12 12:27:04;;;;;;;7.70;4.78;;;32.20;96.30;;;;;;4995646;28;20589;-73
2023/09/12 12:29:30;;;;;;;6.38;4.05;;;32.20;96.40;;;;;;4999449;28;20221;-73
2023/09/12 12:32:01;;;;;;;5.78;4.43;;;32.10;96.50;;;;;;5000315;28;20217;-73
2023/09/12 12:34:27;;;;;;;6.63;4.38;;;32.20;96.80;;;;;;4999134;28;20202;-73
2023/09/12 12:36:54;;;;;;;12.40;4.30;;;32.20;96.40;;;;;;5001457;28;20239;-73
2023/09/12 12:39:21;;;;;;;6.20;4.28;;;32.20;96.60;;;;;;4998069;28;20220;-70
2023/09/12 12:41:47;;;;;;;4.75;3.40;;;32.10;96.40;;;;;;5000966;28;20201;-73